Time;durP1;ratioP1;P1;durP2;ratioP2;P2;SDS_P1;SDS_P2;PMS_P1;PMS_P2;Temp;Humidity;BMP_temperature;BMP_pressure;BME280_temperature;BME280_humidity;BME280_pressure;Samples;Min_cycle;Max_cycle;Signal;HPM_P1;HPM_P2
2022/08/17 00:05:00;;;;;;;18.85;14.65;;;14.30;99.90;;;;;;20497981;29;20103;-63
2022/08/17 00:15:05;;;;;;;21.67;15.05;;;14.30;99.90;;;;;;20496931;28;20102;-47
2022/08/17 00:25:12;;;;;;;18.08;13.00;;;14.30;99.90;;;;;;20497602;29;20098;-49
2022/08/17 00:35:18;;;;;;;18.90;14.18;;;14.50;99.90;;;;;;20511385;29;20086;-51
2022/08/17 00:45:22;;;;;;;21.45;13.73;;;14.50;99.90;;;;;;20495044;29;20477;-50
2022/08/17 00:55:26;;;;;;;21.45;14.85;;;14.50;99.90;;;;;;20511274;29;20507;-48
2022/08/17 01:05:30;;;;;;;21.00;15.20;;;14.50;99.90;;;;;;20509098;28;20039;-50
2022/08/17 01:15:40;;;;;;;24.67;15.55;;;14.50;99.90;;;;;;20492475;28;20075;-63
2022/08/17 01:25:43;;;;;;;17.47;13.53;;;14.40;99.90;;;;;;20492155;29;20066;-63
2022/08/17 01:35:46;;;;;;;15.75;11.23;;;14.50;99.90;;;;;;20508323;29;20063;-63
2022/08/17 01:45:52;;;;;;;15.25;11.07;;;14.30;99.90;;;;;;20490651;29;20071;-51
2022/08/17 01:56:06;;;;;;;15.68;10.70;;;14.40;99.90;;;;;;20489721;29;20067;-50
2022/08/17 02:06:09;;;;;;;17.52;10.68;;;14.30;99.90;;;;;;20488884;29;20413;-48
2022/08/17 02:16:13;;;;;;;16.52;11.00;;;14.40;99.90;;;;;;20487338;28;20416;-49
2022/08/17 02:26:16;;;;;;;17.27;10.98;;;14.50;99.90;;;;;;20487385;29;20039;-63
2022/08/17 02:36:18;;;;;;;18.20;12.05;;;14.60;99.90;;;;;;20486415;29;20392;-53
2022/08/17 02:46:22;;;;;;;22.92;12.98;;;14.40;99.90;;;;;;20485742;29;20118;-51
2022/08/17 02:56:24;;;;;;;15.32;11.63;;;14.40;99.90;;;;;;20484976;29;20031;-49
2022/08/17 03:06:28;;;;;;;15.57;11.48;;;14.60;99.90;;;;;;20484566;29;20098;-51
2022/08/17 03:16:30;;;;;;;15.80;10.55;;;14.80;99.90;;;;;;20483624;29;20051;-48
2022/08/17 03:26:33;;;;;;;13.52;9.95;;;15.00;99.90;;;;;;20482245;28;20035;-51
2022/08/17 03:36:35;;;;;;;16.55;12.45;;;14.90;99.90;;;;;;20499974;29;20035;-63
2022/08/17 03:57:06;;;;;;;21.20;13.98;;;14.90;99.90;;;;;;20483589;29;20448;-63
2022/08/17 04:07:09;;;;;;;22.93;16.27;;;14.60;99.90;;;;;;20497836;29;20504;-49
2022/08/17 04:17:12;;;;;;;20.23;14.38;;;14.40;99.90;;;;;;20497088;29;20051;-63
2022/08/17 04:27:14;;;;;;;22.85;16.60;;;14.30;99.90;;;;;;20482202;28;20477;-51
2022/08/17 04:37:16;;;;;;;23.52;16.52;;;14.20;99.90;;;;;;20516249;28;20460;-51
2022/08/17 04:47:20;;;;;;;20.27;14.32;;;14.20;99.90;;;;;;20495311;29;20094;-49
2022/08/17 04:57:22;;;;;;;21.30;14.90;;;14.40;99.90;;;;;;20505453;29;20400;-49
2022/08/17 05:07:25;;;;;;;22.90;14.70;;;14.50;99.90;;;;;;20493918;29;20035;-63
2022/08/17 05:17:27;;;;;;;19.95;13.65;;;14.60;99.90;;;;;;20492895;29;20052;-47
2022/08/17 05:27:31;;;;;;;22.17;14.55;;;14.70;99.90;;;;;;20492151;29;20109;-52
2022/08/17 05:37:34;;;;;;;23.20;15.32;;;14.80;99.90;;;;;;20507508;29;20458;-52
2022/08/17 05:47:38;;;;;;;23.67;15.68;;;15.10;99.90;;;;;;20490216;28;20093;-52
2022/08/17 05:58:05;;;;;;;19.13;13.40;;;15.50;99.90;;;;;;20435138;29;20059;-50
2022/08/17 06:08:29;;;;;;;15.80;11.65;;;15.90;99.90;;;;;;20410362;29;20039;-46
2022/08/17 06:19:01;;;;;;;16.25;12.00;;;16.20;99.90;;;;;;20409048;29;20055;-52
2022/08/17 06:29:24;;;;;;;11.23;9.15;;;16.60;99.90;;;;;;20465040;29;20452;-52
2022/08/17 06:39:57;;;;;;;7.38;6.45;;;17.70;99.90;;;;;;20518515;28;20043;-53
2022/08/17 06:50:00;;;;;;;7.90;7.00;;;20.10;99.90;;;;;;20517820;28;20631;-50
2022/08/17 07:00:12;;;;;;;8.35;6.57;;;21.50;99.90;;;;;;20485056;28;20043;-65
2022/08/17 07:10:16;;;;;;;7.60;6.85;;;21.90;99.90;;;;;;20484540;29;20043;-49
2022/08/17 07:20:21;;;;;;;7.32;6.00;;;22.70;99.90;;;;;;20500454;29;20055;-53
2022/08/17 07:30:38;;;;;;;5.97;5.43;;;23.70;99.90;;;;;;20483535;29;20185;-53
2022/08/17 07:41:03;;;;;;;6.00;5.20;;;24.80;99.90;;;;;;20498715;29;20035;-53
2022/08/17 07:51:25;;;;;;;8.25;6.50;;;25.50;99.90;;;;;;20498521;29;20062;-54
2022/08/17 08:01:27;;;;;;;9.02;5.05;;;25.80;99.90;;;;;;20483264;29;20084;-53
2022/08/17 08:11:35;;;;;;;6.43;4.63;;;25.50;99.90;;;;;;20485264;28;20094;-52
2022/08/17 08:21:57;;;;;;;6.78;4.65;;;25.10;99.90;;;;;;20512220;29;20055;-51
2022/08/17 08:32:35;;;;;;;8.98;5.80;;;24.60;99.90;;;;;;20511801;29;20106;-67
2022/08/17 08:42:45;;;;;;;5.88;3.88;;;25.00;99.90;;;;;;20511493;28;20035;-67
2022/08/17 08:53:11;;;;;;;6.25;4.40;;;25.70;99.90;;;;;;20511009;29;20426;-53
2022/08/17 09:03:52;;;;;;;6.68;4.72;;;25.90;98.60;;;;;;20509904;29;20039;-67
2022/08/17 09:14:10;;;;;;;6.28;4.55;;;26.30;99.20;;;;;;20493164;28;20055;-67
2022/08/17 09:24:34;;;;;;;9.38;5.90;;;26.90;97.70;;;;;;20507085;28;20039;-67
2022/08/17 09:34:52;;;;;;;6.60;4.72;;;27.40;98.80;;;;;;20503446;28;20059;-53
2022/08/17 09:45:20;;;;;;;7.90;4.95;;;28.10;95.60;;;;;;20424669;29;20039;-53
2022/08/17 09:55:41;;;;;;;5.63;4.97;;;27.10;96.60;;;;;;20485989;28;20040;-50
2022/08/17 10:05:59;;;;;;;8.95;6.40;;;25.90;99.00;;;;;;20439123;29;20035;-50
2022/08/17 10:16:20;;;;;;;8.55;6.25;;;26.30;97.80;;;;;;20487764;29;20043;-52
2022/08/17 10:26:26;;;;;;;5.68;4.78;;;26.60;96.60;;;;;;20486942;29;20047;-53
2022/08/17 10:36:45;;;;;;;8.10;6.47;;;26.80;99.10;;;;;;20502044;28;20090;-48
2022/08/17 10:47:00;;;;;;;7.97;7.18;;;27.20;97.10;;;;;;20501383;29;20039;-52
2022/08/17 10:57:30;;;;;;;8.95;7.80;;;26.90;97.80;;;;;;20501065;29;20090;-66
2022/08/17 11:07:51;;;;;;;11.18;8.48;;;26.70;98.40;;;;;;20484471;29;20070;-66
2022/08/17 11:18:41;;;;;;;10.88;8.40;;;25.90;98.30;;;;;;20499774;29;20039;-50
2022/08/17 11:28:49;;;;;;;11.32;8.80;;;25.20;99.90;;;;;;20227857;29;20048;-52
2022/08/17 11:39:16;;;;;;;9.07;7.25;;;25.40;99.80;;;;;;20254573;29;20053;-50
2022/08/17 12:00:45;;;;;;;9.55;7.75;;;25.20;99.90;;;;;;20335248;29;20048;-51
2022/08/17 12:11:11;;;;;;;9.73;8.10;;;25.70;99.90;;;;;;20492696;29;20039;-51
2022/08/17 12:21:28;;;;;;;13.25;8.35;;;25.90;97.70;;;;;;20228915;29;20053;-52
2022/08/17 12:31:43;;;;;;;13.48;6.25;;;25.80;97.20;;;;;;20175739;29;20060;-65
2022/08/17 12:41:48;;;;;;;8.90;6.30;;;25.10;99.60;;;;;;20160001;29;20049;-66
2022/08/17 12:52:02;;;;;;;11.25;6.50;;;26.00;99.70;;;;;;20233939;29;20117;-52
2022/08/17 13:02:08;;;;;;;8.20;6.43;;;26.40;98.90;;;;;;20489949;28;20110;-49
2022/08/17 13:12:11;;;;;;;9.48;7.30;;;25.60;98.40;;;;;;20477412;29;20094;-53
2022/08/17 13:22:13;;;;;;;10.80;5.97;;;24.90;99.90;;;;;;20508440;29;20575;-50
2022/08/17 13:32:21;;;;;;;8.85;4.40;;;24.70;99.90;;;;;;20507261;28;20094;-52
2022/08/17 13:42:42;;;;;;;9.80;5.20;;;25.40;98.50;;;;;;20490363;29;20484;-52
2022/08/17 13:52:44;;;;;;;7.25;5.30;;;25.80;98.60;;;;;;20506287;29;20563;-53
2022/08/17 14:02:47;;;;;;;7.45;4.20;;;25.60;97.20;;;;;;20504882;29;20098;-48
2022/08/17 14:12:51;;;;;;;7.75;4.53;;;25.00;97.50;;;;;;20487115;28;20051;-64
2022/08/17 14:22:54;;;;;;;7.68;4.40;;;24.30;98.40;;;;;;20503518;29;20035;-49
2022/08/17 14:32:58;;;;;;;6.40;4.65;;;23.80;98.90;;;;;;20503141;29;20035;-49
2022/08/17 14:43:00;;;;;;;6.00;3.53;;;23.40;99.40;;;;;;20486278;29;20481;-64
2022/08/17 14:53:06;;;;;;;6.03;3.05;;;23.50;97.70;;;;;;20485031;29;20485;-64
2022/08/17 15:03:10;;;;;;;5.72;3.88;;;23.50;98.00;;;;;;20501050;29;20055;-61
2022/08/17 15:13:24;;;;;;;6.05;3.60;;;23.20;98.60;;;;;;20483939;28;20102;-64
2022/08/17 15:23:26;;;;;;;5.00;3.08;;;23.30;99.60;;;;;;20499692;28;20420;-50
2022/08/17 15:33:30;;;;;;;5.35;3.13;;;23.30;98.40;;;;;;20499137;29;20046;-52
2022/08/17 15:43:33;;;;;;;10.65;3.70;;;23.10;98.10;;;;;;20498834;29;20035;-53
2022/08/17 15:53:37;;;;;;;8.02;2.50;;;23.90;96.80;;;;;;20497759;29;20496;-48
2022/08/17 16:03:42;;;;;;;7.65;2.70;;;23.90;96.80;;;;;;20513696;28;20031;-53
2022/08/17 16:13:46;;;;;;;6.82;3.22;;;23.20;98.70;;;;;;20481453;28;20441;-61
2022/08/17 16:23:52;;;;;;;5.88;3.00;;;22.30;99.90;;;;;;20481007;29;20479;-50
2022/08/17 16:33:55;;;;;;;6.97;3.22;;;21.60;99.90;;;;;;20470600;28;20500;-63
2022/08/17 16:43:58;;;;;;;7.78;4.00;;;20.90;99.90;;;;;;20423788;29;20048;-63
2022/08/17 16:54:01;;;;;;;8.30;4.32;;;20.30;99.90;;;;;;20448254;28;20106;-50
2022/08/17 17:04:09;;;;;;;7.50;2.63;;;19.80;99.90;;;;;;20444508;29;20099;-63
2022/08/17 17:14:24;;;;;;;9.65;3.00;;;19.60;99.90;;;;;;20419619;29;20043;-50
2022/08/17 17:24:35;;;;;;;14.55;2.95;;;19.60;97.20;;;;;;20492507;29;20035;-52
2022/08/17 17:34:41;;;;;;;12.55;2.67;;;19.40;96.60;;;;;;20523890;28;20074;-61
2022/08/17 17:44:53;;;;;;;11.60;2.85;;;19.30;95.50;;;;;;20505375;28;20038;-62
2022/08/17 17:55:36;;;;;;;10.10;4.45;;;19.30;96.40;;;;;;20505970;29;20374;-53
2022/08/17 18:06:01;;;;;;;12.20;3.80;;;18.90;99.90;;;;;;20424639;29;20052;-64
2022/08/17 18:16:09;;;;;;;11.00;3.47;;;18.50;99.90;;;;;;20475813;28;20047;-54
2022/08/17 18:26:11;;;;;;;9.95;3.80;;;18.10;99.90;;;;;;20502681;29;20539;-48
2022/08/17 18:36:38;;;;;;;8.45;3.70;;;17.70;99.90;;;;;;20499115;29;20055;-64
2022/08/17 18:46:41;;;;;;;9.52;3.50;;;17.50;99.90;;;;;;20502812;29;20436;-64
2022/08/17 18:56:54;;;;;;;6.53;2.80;;;17.30;99.90;;;;;;20500887;28;20527;-64
2022/08/17 19:07:22;;;;;;;13.23;7.72;;;17.30;99.90;;;;;;20484940;29;20035;-49
2022/08/17 19:17:34;;;;;;;10.07;6.97;;;17.40;99.90;;;;;;20476921;29;20078;-60
2022/08/17 19:27:48;;;;;;;14.95;5.50;;;17.30;99.90;;;;;;20483176;29;20043;-64
2022/08/17 19:38:04;;;;;;;11.18;5.25;;;16.90;99.90;;;;;;20387900;29;20057;-51
2022/08/17 19:48:21;;;;;;;10.30;4.68;;;16.40;99.90;;;;;;20477383;29;20086;-49
2022/08/17 19:58:57;;;;;;;8.05;3.60;;;16.20;99.90;;;;;;20482053;29;20086;-62
2022/08/17 20:09:32;;;;;;;10.35;3.42;;;16.20;99.90;;;;;;20488250;28;20043;-50
2022/08/17 20:20:01;;;;;;;4.05;1.48;;;16.10;99.90;;;;;;20513003;29;20055;-51
2022/08/17 20:30:12;;;;;;;6.65;1.77;;;16.10;99.90;;;;;;20190929;29;20118;-50
2022/08/17 20:40:24;;;;;;;6.10;1.65;;;16.10;99.90;;;;;;20174728;29;20048;-62
2022/08/17 20:50:42;;;;;;;5.13;1.58;;;15.90;99.90;;;;;;20173979;29;20056;-47
2022/08/17 21:01:09;;;;;;;6.03;1.83;;;15.80;99.90;;;;;;20081824;29;20692;-49
2022/08/17 21:11:27;;;;;;;9.90;2.20;;;15.60;99.90;;;;;;20249120;29;20077;-51
2022/08/17 21:22:09;;;;;;;7.47;2.63;;;15.40;99.90;;;;;;20257834;29;20135;-48
2022/08/17 21:32:16;;;;;;;10.73;3.22;;;15.40;99.90;;;;;;20077189;29;20492;-62
2022/08/17 21:42:30;;;;;;;6.53;1.95;;;15.60;99.90;;;;;;20166225;29;20077;-49
2022/08/17 21:52:33;;;;;;;9.38;2.70;;;15.40;99.90;;;;;;20264137;29;20044;-49
2022/08/17 22:02:40;;;;;;;7.32;2.70;;;15.40;99.90;;;;;;20384120;29;20051;-50
2022/08/17 22:13:12;;;;;;;6.50;2.53;;;15.30;99.90;;;;;;20488248;28;20051;-49
2022/08/17 22:34:14;;;;;;;9.47;2.67;;;15.10;99.90;;;;;;20502870;28;20102;-48
2022/08/17 22:44:36;;;;;;;7.25;2.60;;;15.30;99.90;;;;;;20485127;29;20504;-62
2022/08/17 23:05:11;;;;;;;8.82;2.00;;;15.60;99.90;;;;;;20485291;29;20075;-53
2022/08/17 23:15:17;;;;;;;7.13;2.25;;;15.40;99.90;;;;;;20483725;28;20075;-62
2022/08/17 23:25:30;;;;;;;7.25;1.95;;;15.30;99.90;;;;;;20483802;29;20039;-47
2022/08/17 23:35:34;;;;;;;5.03;1.80;;;15.00;99.90;;;;;;20500434;29;20507;-62
2022/08/17 23:45:37;;;;;;;5.40;1.80;;;14.80;99.90;;;;;;20481522;28;20067;-62
2022/08/17 23:55:40;;;;;;;3.92;1.50;;;14.60;99.90;;;;;;20514480;28;20047;-50
